Butts, Georgia
Current Conditions -  °F | °C
As of 9:35 AM on Tuesday 21 Oct 2014 (Local Time) from KJYL Reporting Station
Clear Clear  
Wind Chill: 65°   Ceiling: Unl
Heat Index: 65°   Visibility: 10mi
Dew Point: 60°   Wind: 3mph
Humidity: 86%   Direction: 290°WNW
Pressure: 30.01"   Gusts: NA
Location:  32.7727°N, 81.9794°W
Report Text: KJYL 211335Z AUTO 29003KT 10SM CLR 18/16 A3001 RMK AO2 T01810157
Loading
Personal Weather Stations






























Interactive Weather Map
Tropical Storm Tracking
New forecast layout! Learn more

10-Day Weather Forecast

Advertisements
Track Severe Weather on mobile